Time;durP1;ratioP1;P1;durP2;ratioP2;P2;SDS_P1;SDS_P2;PMS_P1;PMS_P2;Temp;Humidity;BMP_temperature;BMP_pressure;BME280_temperature;BME280_humidity;BME280_pressure;Samples;Min_cycle;Max_cycle;Signal;HPM_P1;HPM_P2
2023/05/14 00:01:06;;;;;;;10.30;6.83;;;;;;;-145.69;100.00;52577.06;5054315;28;20199;-78
2023/05/14 00:03:33;;;;;;;12.03;7.87;;;;;;;-145.69;100.00;52594.91;5054593;28;20243;-77
2023/05/14 00:06:00;;;;;;;11.20;7.20;;;;;;;-145.69;100.00;52583.00;5054568;28;20231;-77
2023/05/14 00:08:26;;;;;;;11.20;5.87;;;;;;;-145.69;100.00;52606.78;5055183;28;20203;-77
2023/05/14 00:10:53;;;;;;;10.50;6.83;;;;;;;-145.69;100.00;52598.84;5071377;28;20195;-77
2023/05/14 00:13:19;;;;;;;9.20;6.10;;;;;;;-145.69;100.00;52590.94;5074208;28;20230;-78
2023/05/14 00:15:46;;;;;;;9.43;5.93;;;;;;;-145.69;100.00;52588.97;5074440;28;20204;-77
2023/05/14 00:18:14;;;;;;;7.53;5.50;;;;;;;-145.69;100.00;52553.31;5074364;28;20194;-77
2023/05/14 00:20:40;;;;;;;10.80;6.50;;;;;;;-145.69;100.00;52586.97;5074245;28;20626;-77
2023/05/14 00:23:07;;;;;;;14.10;8.40;;;;;;;-145.69;100.00;52583.00;5074367;28;20199;-77
2023/05/14 00:25:33;;;;;;;11.77;7.63;;;;;;;-145.69;100.00;52555.28;5073741;28;20194;-78
2023/05/14 00:28:00;;;;;;;10.90;7.53;;;;;;;-145.69;100.00;52565.19;5074112;28;20787;-78
2023/05/14 00:30:26;;;;;;;12.10;7.90;;;;;;;-145.69;100.00;52571.13;5070032;28;20203;-78
2023/05/14 00:32:53;;;;;;;15.93;9.20;;;;;;;-145.69;100.00;52602.81;5035977;28;20224;-78
2023/05/14 00:35:21;;;;;;;16.90;9.70;;;;;;;-145.69;100.00;52571.13;5034183;28;20299;-77
2023/05/14 00:37:48;;;;;;;18.53;10.40;;;;;;;-145.69;100.00;52559.25;5034146;28;20620;-77
2023/05/14 00:40:14;;;;;;;14.20;9.50;;;;;;;-145.69;100.00;52579.06;5055506;28;20223;-77
2023/05/14 00:42:41;;;;;;;15.83;10.37;;;;;;;-145.69;100.00;52575.09;5073661;28;20214;-78
2023/05/14 00:45:08;;;;;;;20.80;12.27;;;;;;;-145.69;100.00;52585.00;5074016;28;20285;-78
2023/05/14 00:47:36;;;;;;;19.17;11.13;;;;;;;-145.69;100.00;52577.06;5073341;28;20227;-78
2023/05/14 00:50:03;;;;;;;18.00;11.50;;;;;;;-145.69;100.00;52575.09;5074199;28;20198;-78
2023/05/14 00:52:31;;;;;;;20.90;12.37;;;;;;;-145.69;100.00;52563.22;5073363;28;20689;-78
2023/05/14 00:54:59;;;;;;;20.70;11.67;;;;;;;-145.69;100.00;52581.03;5072750;28;20229;-78
2023/05/14 00:57:26;;;;;;;20.20;11.90;;;;;;;-145.69;100.00;52583.00;5053719;28;20278;-78
2023/05/14 00:59:52;;;;;;;20.73;12.23;;;;;;;-145.69;100.00;52547.38;5053303;28;20286;-77
2023/05/14 01:02:19;;;;;;;18.97;13.17;;;;;;;-145.69;100.00;52555.28;5053181;28;20235;-77
2023/05/14 01:04:45;;;;;;;21.70;12.20;;;;;;;-145.69;100.00;52594.91;5053698;28;20203;-78
2023/05/14 01:07:20;;;;;;;21.80;13.23;;;;;;;-145.69;100.00;52598.84;5053470;28;20196;-77
2023/05/14 01:09:53;;;;;;;25.93;13.87;;;;;;;-145.69;100.00;52551.31;5053378;28;20195;-78
2023/05/14 01:12:27;;;;;;;27.67;13.87;;;;;;;-145.69;100.00;52581.03;5053193;28;20681;-77
2023/05/14 01:14:59;;;;;;;21.43;12.73;;;;;;;-145.69;100.00;52590.94;5062871;28;20202;-78
2023/05/14 01:17:32;;;;;;;20.03;11.67;;;;;;;-145.69;100.00;52569.16;5066291;28;20190;-78
2023/05/14 01:20:00;;;;;;;20.87;11.97;;;;;;;-145.69;100.00;52586.97;5072690;28;20195;-77
2023/05/14 01:22:28;;;;;;;18.37;11.17;;;;;;;-145.69;100.00;52600.84;5064521;28;20285;-78
2023/05/14 01:24:55;;;;;;;19.53;11.87;;;;;;;-145.69;100.00;52547.38;5052840;28;20204;-78
2023/05/14 01:27:26;;;;;;;23.80;13.27;;;;;;;-145.69;100.00;52608.75;5070547;28;20202;-78
2023/05/14 01:29:59;;;;;;;22.60;13.67;;;;;;;-145.69;100.00;52577.06;5073193;28;20205;-78
2023/05/14 01:32:28;;;;;;;24.97;13.37;;;;;;;-145.69;100.00;52555.28;5072717;28;20203;-77
2023/05/14 01:34:58;;;;;;;19.70;12.73;;;;;;;-145.69;100.00;52598.84;5072807;28;20198;-77
2023/05/14 01:37:25;;;;;;;21.83;12.90;;;;;;;-145.69;100.00;52571.13;5063567;28;20196;-77
2023/05/14 01:39:55;;;;;;;25.00;15.23;;;;;;;-145.69;100.00;52563.22;5052948;28;20203;-77
2023/05/14 01:42:23;;;;;;;20.43;12.73;;;;;;;-145.69;100.00;52602.81;5052894;28;20334;-77
2023/05/14 01:44:50;;;;;;;21.47;12.67;;;;;;;-145.69;100.00;52586.97;5052821;28;20206;-77
2023/05/14 01:47:16;;;;;;;30.20;15.00;;;;;;;-145.69;100.00;52579.06;5052154;28;20292;-77
2023/05/14 01:49:43;;;;;;;27.30;14.23;;;;;;;-145.69;100.00;52571.13;5052699;28;20206;-78
2023/05/14 01:52:09;;;;;;;23.63;13.77;;;;;;;-145.69;100.00;52565.19;5057462;28;20277;-78
2023/05/14 01:54:36;;;;;;;24.23;15.00;;;;;;;-145.69;100.00;52551.31;5072220;28;20544;-77
2023/05/14 01:57:04;;;;;;;26.97;13.60;;;;;;;-145.69;100.00;52585.00;5072829;28;20199;-78
2023/05/14 01:59:31;;;;;;;24.57;13.33;;;;;;;-145.69;100.00;52583.00;5067513;28;20191;-77
2023/05/14 02:01:57;;;;;;;25.40;13.70;;;;;;;-145.69;100.00;52567.16;5052680;28;20233;-77
2023/05/14 02:04:24;;;;;;;23.80;14.37;;;;;;;-145.69;100.00;52598.84;5052651;28;20203;-78
2023/05/14 02:06:50;;;;;;;28.60;15.17;;;;;;;-145.69;100.00;52614.72;5052109;28;20192;-78
2023/05/14 02:09:17;;;;;;;26.63;14.87;;;;;;;-145.69;100.00;52585.00;5056578;28;20653;-78
2023/05/14 02:11:43;;;;;;;29.03;16.73;;;;;;;-145.69;100.00;52606.78;5072688;28;20282;-77
2023/05/14 02:14:11;;;;;;;32.10;16.73;;;;;;;-145.69;100.00;52596.88;5072518;28;20226;-77
2023/05/14 02:16:38;;;;;;;32.57;16.63;;;;;;;-145.69;100.00;52610.75;5071868;28;20203;-78
2023/05/14 02:19:05;;;;;;;29.40;16.17;;;;;;;-145.69;100.00;52598.84;5072754;28;20205;-78
2023/05/14 02:21:31;;;;;;;29.17;15.30;;;;;;;-145.69;100.00;52571.13;5072383;28;20206;-78
2023/05/14 02:23:58;;;;;;;27.57;15.27;;;;;;;-145.69;100.00;52579.06;5052724;28;20356;-77
2023/05/14 02:26:25;;;;;;;27.83;16.30;;;;;;;-145.69;100.00;52575.09;5052547;28;20231;-77
2023/05/14 02:28:51;;;;;;;28.20;16.50;;;;;;;-145.69;100.00;52596.88;5052373;28;20199;-77
2023/05/14 02:31:19;;;;;;;33.07;17.63;;;;;;;-145.69;100.00;52602.81;5052380;28;20566;-78
2023/05/14 02:33:45;;;;;;;31.63;17.73;;;;;;;-145.69;100.00;52602.81;5052350;28;20227;-78
2023/05/14 02:36:12;;;;;;;31.53;17.10;;;;;;;-145.69;100.00;52561.22;5051892;28;20246;-78
2023/05/14 02:38:39;;;;;;;29.83;16.63;;;;;;;-145.69;100.00;52606.78;5041942;28;20203;-78
2023/05/14 02:41:05;;;;;;;27.70;16.03;;;;;;;-145.69;100.00;52577.06;5032317;28;20207;-78
2023/05/14 02:43:32;;;;;;;29.73;17.30;;;;;;;-145.69;100.00;52590.94;5032101;28;20215;-78
2023/05/14 02:45:58;;;;;;;34.43;16.97;;;;;;;-145.69;100.00;52592.91;5052529;28;20203;-78
2023/05/14 02:48:26;;;;;;;27.67;15.63;;;;;;;-145.69;100.00;52585.00;5072134;28;20234;-78
2023/05/14 02:50:53;;;;;;;25.40;15.00;;;;;;;-145.69;100.00;52588.97;5072231;28;20285;-78
2023/05/14 02:53:19;;;;;;;29.37;16.30;;;;;;;-145.69;100.00;52590.94;5058551;28;20223;-78
2023/05/14 02:55:46;;;;;;;26.73;14.90;;;;;;;-145.69;100.00;52545.38;5052200;28;20298;-78
2023/05/14 02:58:12;;;;;;;27.33;16.17;;;;;;;-145.69;100.00;52598.84;5051775;28;20646;-78
2023/05/14 03:00:39;;;;;;;32.50;18.03;;;;;;;-145.69;100.00;52586.97;5051664;28;20208;-78
2023/05/14 03:03:05;;;;;;;29.93;15.87;;;;;;;-145.69;100.00;52598.84;5052249;28;20196;-78
2023/05/14 03:05:33;;;;;;;31.77;16.83;;;;;;;-145.69;100.00;52547.38;5052136;28;20655;-78
2023/05/14 03:08:00;;;;;;;29.73;16.23;;;;;;;-145.69;100.00;52594.91;5051863;28;20682;-78
2023/05/14 03:10:27;;;;;;;28.27;15.80;;;;;;;-145.69;100.00;52586.97;5051854;28;20287;-78
2023/05/14 03:12:53;;;;;;;30.07;16.60;;;;;;;-145.69;100.00;52569.16;5052192;28;20212;-78
2023/05/14 03:15:20;;;;;;;30.23;18.33;;;;;;;-145.69;100.00;52555.28;5052205;28;20226;-79
2023/05/14 03:17:46;;;;;;;31.03;17.10;;;;;;;-145.69;100.00;52565.19;5052315;28;20206;-79
2023/05/14 03:20:13;;;;;;;34.37;18.50;;;;;;;-145.69;100.00;52598.84;5055729;28;20207;-78
2023/05/14 03:22:41;;;;;;;34.60;20.08;;;;;;;-145.69;100.00;52596.88;5061619;28;20800;-78
2023/05/14 03:25:08;;;;;;;30.33;17.70;;;;;;;-145.69;100.00;52585.00;5074336;28;20199;-78
2023/05/14 03:27:35;;;;;;;34.60;18.67;;;;;;;-145.69;100.00;52602.81;5075429;28;20207;-78
2023/05/14 03:30:01;;;;;;;29.27;16.73;;;;;;;-145.69;100.00;52586.97;5075534;28;20209;-79
2023/05/14 03:32:28;;;;;;;28.30;16.60;;;;;;;-145.69;100.00;52588.97;5075543;28;20231;-79
2023/05/14 03:34:55;;;;;;;32.37;17.30;;;;;;;-145.69;100.00;52581.03;5074990;28;20231;-78
2023/05/14 03:37:22;;;;;;;30.10;16.60;;;;;;;-145.69;100.00;52561.22;5074884;28;20669;-78
2023/05/14 03:39:50;;;;;;;35.97;18.30;;;;;;;-145.69;100.00;52579.06;5074939;28;20573;-78
2023/05/14 03:42:16;;;;;;;30.07;17.10;;;;;;;-145.69;100.00;52600.84;5074635;28;20645;-78
2023/05/14 03:44:43;;;;;;;29.90;16.93;;;;;;;-145.69;100.00;52614.72;5074190;28;20286;-78
2023/05/14 03:47:10;;;;;;;29.00;16.07;;;;;;;-145.69;100.00;52575.09;5054357;28;20296;-77
2023/05/14 03:49:36;;;;;;;34.13;17.60;;;;;;;-145.69;100.00;52555.28;5055643;28;20204;-77
2023/05/14 03:52:03;;;;;;;28.43;16.47;;;;;;;-145.69;100.00;52579.06;5056384;28;20289;-77
2023/05/14 03:54:30;;;;;;;29.17;16.00;;;;;;;-145.69;100.00;52602.81;5074756;28;20237;-77
2023/05/14 03:56:58;;;;;;;29.57;17.03;;;;;;;-145.69;100.00;52575.09;5074852;28;20206;-77
2023/05/14 03:59:24;;;;;;;30.83;17.47;;;;;;;-145.69;100.00;52596.88;5074842;28;20199;-77
2023/05/14 04:01:51;;;;;;;25.77;15.70;;;;;;;-145.69;100.00;52563.22;5074520;28;20207;-77
2023/05/14 04:04:17;;;;;;;29.37;16.57;;;;;;;-145.69;100.00;52561.22;5074763;28;20203;-77
2023/05/14 04:06:46;;;;;;;32.43;18.77;;;;;;;-145.69;100.00;52592.91;5074726;28;20205;-78
2023/05/14 04:09:12;;;;;;;27.80;16.07;;;;;;;-145.69;100.00;52573.13;5074460;28;20205;-78
2023/05/14 04:11:39;;;;;;;30.27;17.03;;;;;;;-145.69;100.00;52579.06;5074113;28;20199;-78
2023/05/14 04:14:07;;;;;;;30.97;17.13;;;;;;;-145.69;100.00;52585.00;5074692;28;20233;-78
2023/05/14 04:16:33;;;;;;;30.30;17.10;;;;;;;-145.69;100.00;52588.97;5058470;28;20283;-78
2023/05/14 04:19:02;;;;;;;42.63;20.77;;;;;;;-145.69;100.00;52600.84;5054319;28;20199;-78
2023/05/14 04:21:29;;;;;;;38.03;17.67;;;;;;;-145.69;100.00;52565.19;5063976;28;20191;-78
2023/05/14 04:23:55;;;;;;;42.57;20.23;;;;;;;-145.69;100.00;52598.84;5071937;28;20195;-78
2023/05/14 04:26:22;;;;;;;39.97;19.80;;;;;;;-145.69;100.00;52626.59;5069531;28;20195;-78
2023/05/14 04:28:48;;;;;;;40.30;18.83;;;;;;;-145.69;100.00;52573.13;5070940;28;20198;-78
2023/05/14 04:31:16;;;;;;;40.83;20.50;;;;;;;-145.69;100.00;52581.03;5057832;28;20577;-78
2023/05/14 04:33:45;;;;;;;45.27;21.13;;;;;;;-145.69;100.00;52543.41;5055144;28;20690;-78
2023/05/14 04:36:12;;;;;;;49.87;22.53;;;;;;;-145.69;100.00;52545.38;5068032;28;20211;-78
2023/05/14 04:38:39;;;;;;;49.50;23.33;;;;;;;-145.69;100.00;52579.06;5045266;28;20204;-77
2023/05/14 04:41:06;;;;;;;48.33;21.83;;;;;;;-145.69;100.00;52606.78;5034318;28;20234;-78
2023/05/14 04:43:32;;;;;;;44.43;22.20;;;;;;;-145.69;100.00;52563.22;5034112;28;20204;-78
2023/05/14 04:45:59;;;;;;;43.53;20.77;;;;;;;-145.69;100.00;52573.13;5033713;28;20709;-78
2023/05/14 04:48:27;;;;;;;44.20;21.27;;;;;;;-145.69;100.00;52588.97;5033798;28;20238;-78
2023/05/14 04:50:53;;;;;;;45.40;21.47;;;;;;;-145.69;100.00;52598.84;5034132;28;20200;-77
2023/05/14 04:53:20;;;;;;;41.97;21.30;;;;;;;-145.69;100.00;52579.06;5035125;28;20249;-78
2023/05/14 04:55:46;;;;;;;48.43;22.60;;;;;;;-145.69;100.00;52622.63;5073726;28;20226;-78
2023/05/14 04:58:13;;;;;;;43.73;22.10;;;;;;;-145.69;100.00;52588.97;5073344;28;20194;-78
2023/05/14 05:00:40;;;;;;;48.53;22.87;;;;;;;-145.69;100.00;52581.03;5073563;28;20294;-78
2023/05/14 05:03:07;;;;;;;40.80;19.47;;;;;;;-145.69;100.00;52600.84;5071951;28;20208;-78
2023/05/14 05:05:35;;;;;;;41.60;21.43;;;;;;;-145.69;100.00;52604.81;5064822;28;20195;-78
2023/05/14 05:08:04;;;;;;;38.27;19.27;;;;;;;-145.69;100.00;52573.13;5046389;28;20200;-78
2023/05/14 05:10:31;;;;;;;39.03;20.53;;;;;;;-145.69;100.00;52569.16;5053409;28;20257;-77
2023/05/14 05:12:57;;;;;;;43.77;20.53;;;;;;;-145.69;100.00;52592.91;5053289;28;20207;-78
2023/05/14 05:15:24;;;;;;;41.97;20.00;;;;;;;-145.69;100.00;52571.13;5072183;28;20314;-78
2023/05/14 05:17:51;;;;;;;43.00;20.10;;;;;;;-145.69;100.00;52579.06;5073127;28;20202;-78
2023/05/14 05:20:17;;;;;;;39.03;19.57;;;;;;;-145.69;100.00;52573.13;5073243;28;20661;-78
2023/05/14 05:22:45;;;;;;;45.00;19.67;;;;;;;-145.69;100.00;52571.13;5072796;28;20210;-78
2023/05/14 05:25:12;;;;;;;39.03;20.30;;;;;;;-145.69;100.00;52569.16;5058971;28;20207;-78
2023/05/14 05:27:38;;;;;;;40.30;19.80;;;;;;;-145.69;100.00;52583.00;5053288;28;20246;-78
2023/05/14 05:30:07;;;;;;;39.10;19.57;;;;;;;-145.69;100.00;52598.84;5052984;28;20199;-78
2023/05/14 05:32:33;;;;;;;33.43;17.13;;;;;;;-145.69;100.00;52545.38;5053868;28;20201;-78
2023/05/14 05:35:06;;;;;;;35.00;17.93;;;;;;;-145.69;100.00;52561.22;5053019;28;20258;-78
2023/05/14 05:37:33;;;;;;;36.47;18.60;;;;;;;-145.69;100.00;52571.13;5053220;28;20203;-79
2023/05/14 05:40:01;;;;;;;36.60;18.80;;;;;;;-145.69;100.00;52571.13;5052497;28;20214;-79
2023/05/14 05:42:27;;;;;;;34.20;17.90;;;;;;;-145.69;100.00;52592.91;5052465;28;20199;-79
2023/05/14 05:44:54;;;;;;;33.13;17.33;;;;;;;-145.69;100.00;52588.97;5066794;28;20660;-79
2023/05/14 05:47:21;;;;;;;32.25;16.67;;;;;;;-145.69;100.00;52563.22;5072775;28;20237;-79
2023/05/14 05:49:47;;;;;;;27.43;14.73;;;;;;;-145.69;100.00;52569.16;5059762;28;20203;-78
2023/05/14 05:52:14;;;;;;;25.90;14.43;;;;;;;-145.69;100.00;52571.13;5052967;28;20204;-78
2023/05/14 05:54:40;;;;;;;27.70;15.10;;;;;;;-145.69;100.00;52583.00;5061604;28;20234;-78
2023/05/14 05:57:08;;;;;;;22.57;13.30;;;;;;;-145.69;100.00;52525.59;5072635;28;20203;-78
2023/05/14 05:59:35;;;;;;;25.00;13.70;;;;;;;-145.69;100.00;52537.47;5072565;28;20568;-78
2023/05/14 06:02:01;;;;;;;22.15;12.48;;;;;;;-145.69;100.00;52590.94;5049323;28;20242;-78
2023/05/14 06:04:28;;;;;;;18.98;11.15;;;;;;;-145.69;100.00;52529.53;5072549;28;20202;-78
2023/05/14 06:06:54;;;;;;;25.20;12.55;;;;;;;-145.69;100.00;52553.31;5058991;28;20195;-79
2023/05/14 06:09:21;;;;;;;23.80;12.90;;;;;;;-145.69;100.00;52559.25;5072180;28;20631;-78
2023/05/14 06:11:47;;;;;;;24.97;13.70;;;;;;;-145.69;100.00;52531.53;5072439;28;20569;-79
2023/05/14 06:14:15;;;;;;;22.53;13.63;;;;;;;-145.69;100.00;52563.22;5072480;28;20237;-79
2023/05/14 06:16:42;;;;;;;23.48;13.30;;;;;;;-145.69;100.00;52571.13;5072421;28;20581;-78
2023/05/14 06:19:08;;;;;;;22.90;12.60;;;;;;;-145.69;100.00;52563.22;5072496;28;20646;-78
2023/05/14 06:21:35;;;;;;;19.20;12.30;;;;;;;-145.69;100.00;52551.31;5071065;28;20199;-78
2023/05/14 06:24:02;;;;;;;24.67;12.50;;;;;;;-145.69;100.00;52543.41;5053496;28;20238;-79
2023/05/14 06:26:28;;;;;;;21.95;12.18;;;;;;;-145.69;100.00;52563.22;5059468;28;20187;-78
2023/05/14 06:28:55;;;;;;;21.50;12.68;;;;;;;-145.69;100.00;52535.47;5052935;28;20199;-79
2023/05/14 06:31:23;;;;;;;20.15;12.02;;;;;;;-145.69;100.00;52565.19;5047988;28;20206;-78
2023/05/14 06:33:49;;;;;;;18.20;10.88;;;;;;;-145.69;100.00;52573.13;5052366;28;20195;-78
2023/05/14 06:36:16;;;;;;;17.83;10.60;;;;;;;-145.69;100.00;52563.22;5058480;28;20227;-79
2023/05/14 06:38:44;;;;;;;18.30;10.20;;;;;;;-145.69;100.00;52539.44;5072206;28;20558;-79
2023/05/14 06:41:11;;;;;;;17.17;9.85;;;;;;;-145.69;100.00;52529.53;5071933;28;20673;-78
2023/05/14 06:43:37;;;;;;;16.42;9.68;;;;;;;-145.69;100.00;52519.63;5072127;28;20251;-79
2023/05/14 06:46:04;;;;;;;17.88;10.05;;;;;;;-145.69;100.00;52527.56;5072529;28;20203;-82
2023/05/14 06:48:32;;;;;;;16.35;9.77;;;;;;;-145.69;100.00;52487.97;5071929;28;20303;-80
2023/05/14 06:50:58;;;;;;;13.60;8.52;;;;;;;-145.69;100.00;52515.69;5072364;28;20231;-80
2023/05/14 06:53:25;;;;;;;19.23;10.38;;;;;;;-145.69;100.00;52515.69;5075084;28;20588;-80
2023/05/14 06:55:52;;;;;;;17.13;9.82;;;;;;;-145.69;100.00;52549.34;5073921;28;20227;-80
2023/05/14 06:58:18;;;;;;;17.17;10.65;;;;;;;-145.69;100.00;52535.47;5075588;28;20294;-80
2023/05/14 07:00:45;;;;;;;19.42;11.10;;;;;;;-145.69;100.00;52543.41;5075725;28;20294;-80
2023/05/14 07:03:11;;;;;;;17.75;11.02;;;;;;;-145.69;100.00;52529.53;5068397;28;20199;-78
2023/05/14 07:05:40;;;;;;;20.25;11.35;;;;;;;-145.69;100.00;52539.44;5055782;28;20199;-79
2023/05/14 07:08:17;;;;;;;19.90;12.25;;;;;;;-145.69;100.00;52545.38;5075201;28;20226;-79
2023/05/14 07:10:44;;;;;;;19.45;11.55;;;;;;;-145.69;100.00;52517.66;5075636;28;20213;-80
2023/05/14 07:13:11;;;;;;;18.00;10.50;;;;;;;-145.69;100.00;52573.13;5075864;28;20199;-79
2023/05/14 07:15:37;;;;;;;18.23;10.73;;;;;;;-145.69;100.00;52527.56;5075300;28;20230;-82
2023/05/14 07:18:04;;;;;;;20.80;11.50;;;;;;;-145.69;100.00;52511.72;5075686;28;20203;-78
2023/05/14 07:20:30;;;;;;;18.70;11.15;;;;;;;-145.69;100.00;52551.31;5075595;28;20206;-80
2023/05/14 07:22:58;;;;;;;17.55;9.88;;;;;;;-145.69;100.00;52527.56;5075542;28;20194;-79
2023/05/14 07:25:24;;;;;;;15.18;9.15;;;;;;;-145.69;100.00;52537.47;5060992;28;20198;-79
2023/05/14 07:27:51;;;;;;;16.65;9.18;;;;;;;-145.69;100.00;52523.59;5055399;28;20566;-79
2023/05/14 07:30:17;;;;;;;14.02;8.77;;;;;;;-145.69;100.00;52529.53;5055323;28;20203;-79
2023/05/14 07:32:44;;;;;;;18.52;10.27;;;;;;;-145.69;100.00;52541.44;5055368;28;20191;-79
2023/05/14 07:35:11;;;;;;;16.48;9.40;;;;;;;-145.69;100.00;52509.75;5054917;28;20235;-84
2023/05/14 07:37:38;;;;;;;13.30;8.85;;;;;;;-145.69;100.00;52525.59;5072227;28;20191;-84
2023/05/14 07:40:07;;;;;;;16.40;9.07;;;;;;;-145.69;100.00;52515.69;5075252;28;20207;-79
2023/05/14 07:42:34;;;;;;;14.75;9.02;;;;;;;-145.69;100.00;52531.53;5075397;28;20210;-81
2023/05/14 07:45:00;;;;;;;14.45;8.40;;;;;;;-145.69;100.00;52474.09;5075048;28;20209;-84
2023/05/14 07:47:27;;;;;;;14.90;8.57;;;;;;;-145.69;100.00;52468.16;5072498;28;20617;-83
2023/05/14 07:49:57;;;;;;;14.50;8.98;;;;;;;-145.69;100.00;52507.75;5055140;28;20207;-82
2023/05/14 07:52:26;;;;;;;14.82;9.00;;;;;;;-145.69;100.00;52529.53;5054538;28;20630;-81
2023/05/14 07:54:53;;;;;;;14.05;8.77;;;;;;;-145.69;100.00;52464.19;5054808;28;20230;-80
2023/05/14 07:57:23;;;;;;;15.50;10.05;;;;;;;-145.69;100.00;52533.50;5054678;28;20226;-80
2023/05/14 07:59:55;;;;;;;15.07;9.63;;;;;;;-145.69;100.00;52531.53;5034882;28;20202;-80
2023/05/14 08:02:25;;;;;;;17.42;10.70;;;;;;;-145.69;100.00;52543.41;5034807;28;20196;-81
2023/05/14 08:04:52;;;;;;;14.77;9.38;;;;;;;-145.69;100.00;52503.81;5068165;28;20260;-80
2023/05/14 08:07:18;;;;;;;15.45;9.05;;;;;;;-145.69;100.00;52555.28;5074794;28;20285;-81
2023/05/14 08:09:45;;;;;;;16.40;9.93;;;;;;;-145.69;100.00;52519.63;5074594;28;20596;-80
2023/05/14 08:12:11;;;;;;;14.55;8.85;;;;;;;-145.69;100.00;52515.69;5073752;28;20256;-81
2023/05/14 08:14:39;;;;;;;15.48;9.40;;;;;;;-145.69;100.00;52525.59;5074173;28;20202;-79
2023/05/14 08:17:08;;;;;;;17.10;9.77;;;;;;;-145.69;100.00;52517.66;5074636;28;20202;-80
2023/05/14 08:19:37;;;;;;;14.85;9.40;;;;;;;-145.69;100.00;52523.59;5055489;28;20199;-81
2023/05/14 08:22:04;;;;;;;15.50;9.27;;;;;;;-145.69;100.00;52513.69;5054654;28;20203;-80
2023/05/14 08:24:30;;;;;;;17.50;9.27;;;;;;;-145.69;100.00;52515.69;5041788;28;20204;-80
2023/05/14 08:26:57;;;;;;;18.30;10.13;;;;;;;-145.69;100.00;52521.63;5045402;28;20227;-81
2023/05/14 08:29:26;;;;;;;15.23;9.32;;;;;;;-145.69;100.00;52555.28;5054231;28;20670;-82
2023/05/14 08:32:04;;;;;;;14.88;9.35;;;;;;;-145.69;100.00;52543.41;5054501;28;20203;-80
2023/05/14 08:34:30;;;;;;;15.95;9.77;;;;;;;-145.69;100.00;52515.69;5054299;28;20199;-80
2023/05/14 08:36:57;;;;;;;15.43;10.10;;;;;;;-145.69;100.00;52517.66;5054163;28;20234;-80
2023/05/14 08:39:23;;;;;;;14.43;8.88;;;;;;;-145.69;100.00;52557.28;5054170;28;20206;-80
2023/05/14 08:41:49;;;;;;;17.13;9.65;;;;;;;-145.69;100.00;52495.88;5068938;28;20199;-81
2023/05/14 08:44:19;;;;;;;15.80;8.95;;;;;;;-145.69;100.00;52527.56;5074046;28;20608;-80
2023/05/14 08:46:46;;;;;;;14.05;8.43;;;;;;;-145.69;100.00;52501.81;5073916;28;20235;-81
2023/05/14 08:49:24;;;;;;;13.35;8.45;;;;;;;-145.69;100.00;52541.44;5054941;28;20202;-80
2023/05/14 08:51:51;;;;;;;12.68;8.27;;;;;;;-145.69;100.00;52507.75;5073370;28;20202;-80
2023/05/14 08:54:18;;;;;;;12.98;8.35;;;;;;;-145.69;100.00;52493.91;5073738;28;20203;-81
2023/05/14 08:56:45;;;;;;;12.18;7.22;;;;;;;-145.69;100.00;52487.97;5073612;28;20222;-80
2023/05/14 08:59:12;;;;;;;11.60;7.28;;;;;;;-145.69;100.00;52517.66;5073786;28;20199;-80
2023/05/14 09:01:39;;;;;;;11.27;7.70;;;;;;;-145.69;100.00;52491.91;5073772;28;20561;-80
2023/05/14 09:04:07;;;;;;;9.93;6.88;;;;;;;-145.69;100.00;52507.75;5073685;28;20290;-81
2023/05/14 09:06:37;;;;;;;12.23;8.13;;;;;;;-145.69;100.00;52515.69;5073575;28;20206;-80
2023/05/14 09:09:04;;;;;;;9.95;6.70;;;;;;;-145.69;100.00;52543.41;5073458;28;20665;-81
2023/05/14 09:11:31;;;;;;;10.65;6.78;;;;;;;-145.69;100.00;52523.59;5060191;28;20654;-80
2023/05/14 09:13:57;;;;;;;13.38;7.78;;;;;;;-145.69;100.00;52545.38;5053126;28;20206;-81
2023/05/14 09:16:27;;;;;;;15.93;8.63;;;;;;;-145.69;100.00;52533.50;5052104;28;20231;-80
2023/05/14 09:18:58;;;;;;;14.35;8.88;;;;;;;-145.69;100.00;52515.69;5053277;28;20245;-81
2023/05/14 09:21:25;;;;;;;14.80;8.70;;;;;;;-145.69;100.00;52507.75;5053296;28;20207;-81
2023/05/14 09:23:57;;;;;;;14.90;9.55;;;;;;;-145.69;100.00;52511.72;5053480;28;20196;-79
2023/05/14 09:26:25;;;;;;;16.67;10.07;;;;;;;-145.69;100.00;52539.44;5054771;28;20213;-81
2023/05/14 09:28:59;;;;;;;15.70;9.88;;;;;;;-145.69;100.00;52565.19;5045948;28;20191;-79
2023/05/14 09:31:26;;;;;;;15.98;9.88;;;;;;;-145.69;100.00;52535.47;5053971;28;20211;-80
2023/05/14 09:33:53;;;;;;;15.10;10.05;;;;;;;-145.69;100.00;52515.69;5073064;28;20198;-82
2023/05/14 09:36:20;;;;;;;16.15;9.90;;;;;;;-145.69;100.00;52519.63;5072876;28;20697;-80
2023/05/14 09:38:46;;;;;;;16.88;8.98;;;;;;;-145.69;100.00;52511.72;5073183;28;20202;-83
2023/05/14 09:41:15;;;;;;;18.05;9.68;;;;;;;-145.69;100.00;52531.53;5073413;28;20206;-80
2023/05/14 09:43:41;;;;;;;15.70;9.77;;;;;;;-145.69;100.00;52509.75;5073137;28;20200;-83
2023/05/14 09:46:08;;;;;;;14.13;8.77;;;;;;;-145.69;100.00;52480.03;5072842;28;20199;-82
2023/05/14 09:48:34;;;;;;;15.70;9.10;;;;;;;-145.69;100.00;52517.66;5072354;28;20704;-82
2023/05/14 09:51:01;;;;;;;14.52;9.05;;;;;;;-145.69;100.00;52468.16;5072937;28;20214;-81
2023/05/14 09:53:40;;;;;;;14.63;8.82;;;;;;;-145.69;100.00;52474.09;5073291;28;20203;-85
2023/05/14 09:56:07;;;;;;;15.68;8.82;;;;;;;-145.69;100.00;52480.03;5073154;28;20321;-84
2023/05/14 09:58:34;;;;;;;13.88;9.02;;;;;;;-145.69;100.00;52527.56;5067582;28;20195;-82
2023/05/14 10:01:02;;;;;;;13.38;8.88;;;;;;;-145.69;100.00;52509.75;5052888;28;20202;-80
2023/05/14 10:03:30;;;;;;;14.27;8.35;;;;;;;-145.69;100.00;52503.81;5052808;28;20257;-83
2023/05/14 10:06:04;;;;;;;14.52;8.75;;;;;;;-145.69;100.00;52505.78;5052912;28;20606;-81
2023/05/14 10:08:34;;;;;;;11.45;8.40;;;;;;;-145.69;100.00;52547.38;5052814;28;20206;-82
2023/05/14 10:11:03;;;;;;;14.63;8.63;;;;;;;-145.69;100.00;52491.91;5052374;28;20287;-83
2023/05/14 10:13:37;;;;;;;16.27;8.57;;;;;;;-145.69;100.00;52485.97;5052743;28;20200;-82
2023/05/14 10:16:11;;;;;;;14.27;8.77;;;;;;;-145.69;100.00;52489.94;5052825;28;20227;-82
2023/05/14 10:18:44;;;;;;;9.73;7.00;;;;;;;-145.69;100.00;52442.41;5058500;28;20205;-82
2023/05/14 10:21:11;;;;;;;14.07;7.95;;;;;;;-145.69;100.00;52466.16;5072882;28;20198;-81
2023/05/14 10:23:39;;;;;;;11.82;7.68;;;;;;;-145.69;100.00;52446.38;5072638;28;20207;-82
2023/05/14 10:26:07;;;;;;;11.18;7.63;;;;;;;-145.69;100.00;52489.94;5072125;28;20203;-82
2023/05/14 10:28:34;;;;;;;11.02;7.47;;;;;;;-145.69;100.00;52452.31;5070931;28;20192;-81
2023/05/14 10:31:00;;;;;;;14.18;7.45;;;;;;;-145.69;100.00;52466.16;5074045;28;20213;-82
2023/05/14 10:33:28;;;;;;;10.27;7.30;;;;;;;-145.69;100.00;52454.28;5077476;28;20285;-82
2023/05/14 10:36:03;;;;;;;11.45;7.38;;;;;;;-145.69;100.00;52424.59;5076646;28;20229;-82
2023/05/14 10:38:30;;;;;;;10.50;7.05;;;;;;;-145.69;100.00;52484.00;5058376;28;20199;-81
2023/05/14 10:40:59;;;;;;;13.10;6.75;;;;;;;-145.69;100.00;52452.31;5056748;28;20210;-82
2023/05/14 10:43:29;;;;;;;9.73;7.00;;;;;;;-145.69;100.00;52466.16;5056445;28;20237;-83
2023/05/14 10:45:57;;;;;;;10.38;6.47;;;;;;;-145.69;100.00;52456.28;5056970;28;20247;-80
2023/05/14 10:48:24;;;;;;;10.20;7.10;;;;;;;-145.69;100.00;52442.41;5062337;28;20246;-83
2023/05/14 10:50:55;;;;;;;12.23;7.70;;;;;;;-145.69;100.00;52460.22;5076276;28;20202;-83
2023/05/14 10:53:32;;;;;;;12.27;8.13;;;;;;;-145.69;100.00;52448.34;5076407;28;20194;-83
2023/05/14 10:56:03;;;;;;;10.50;7.22;;;;;;;-145.69;100.00;52426.56;5060765;28;20223;-81
2023/05/14 10:58:31;;;;;;;10.27;6.57;;;;;;;-145.69;98.86;52438.44;5056405;28;20199;-81